aviador You're here:

ZWWW Decoded Metar

URUMQI in CHINA
Report Time2017-07-26 22:00:00
UTC Time2017-07-26 22:40:16
Flight Rules vfr VFR
Wind180° at 10 kt
W.Decomp.*RWY 25: 2.9 kt HW 9.6 kt LCW
W.Rank180° ranks 13
Current wind is above 180° avg. (5.7)
Visibility9999 m
Phenomena:N/A
Clouds:N/A
Expected CloudBase > 9,600 ft AGL from Temp-Dew spread
CeilingNone
Temp28°C (ISA +17)
Dew Point04°C (21% RH)
Heat Index26.8°C
AAT23.0°C
QNH1006 hPa
Density Alt4,472 ft
Elevation2,146 ft
Report Wrong Elevation
Raw Report
METAR ZWWW 262200Z 18005MPS CAVOK 28/04 Q1006 NOSIG=

Extra information for ZWWW:More info

Metar Taf Metar & Taf Last 4 Metars F.Rules Stats Wind Profile Meteogram Temp Stats Airport Information Weather charts Add Link Nearby VenuesMetar ALERT Operation Metar Decoded Social comments